sensor_id;sensor_type;location;lat;lon;timestamp;P1;durP1;ratioP1;P2;durP2;ratioP2
59233;SDS011;60776;51.702;7.462;2023-07-24T00:00:19;2.72;;;2.50;;
59233;SDS011;60776;51.702;7.462;2023-07-24T00:02:45;2.58;;;2.38;;
59233;SDS011;60776;51.702;7.462;2023-07-24T00:05:11;3.67;;;2.80;;
59233;SDS011;60776;51.702;7.462;2023-07-24T00:07:36;3.40;;;2.88;;
59233;SDS011;60776;51.702;7.462;2023-07-24T00:10:02;2.70;;;2.42;;
59233;SDS011;60776;51.702;7.462;2023-07-24T00:12:29;3.75;;;2.70;;
59233;SDS011;60776;51.702;7.462;2023-07-24T00:14:56;3.08;;;2.75;;
59233;SDS011;60776;51.702;7.462;2023-07-24T00:17:22;3.00;;;2.67;;
59233;SDS011;60776;51.702;7.462;2023-07-24T00:19:48;3.53;;;2.60;;
59233;SDS011;60776;51.702;7.462;2023-07-24T00:22:14;3.05;;;2.70;;
59233;SDS011;60776;51.702;7.462;2023-07-24T00:24:39;2.53;;;2.33;;
59233;SDS011;60776;51.702;7.462;2023-07-24T00:27:05;3.00;;;2.70;;
59233;SDS011;60776;51.702;7.462;2023-07-24T00:29:33;3.63;;;2.42;;
59233;SDS011;60776;51.702;7.462;2023-07-24T00:31:59;6.32;;;2.88;;
59233;SDS011;60776;51.702;7.462;2023-07-24T00:34:25;3.13;;;2.63;;
59233;SDS011;60776;51.702;7.462;2023-07-24T00:36:51;2.75;;;2.15;;
59233;SDS011;60776;51.702;7.462;2023-07-24T00:39:16;2.47;;;2.28;;
59233;SDS011;60776;51.702;7.462;2023-07-24T00:41:44;4.00;;;2.60;;
59233;SDS011;60776;51.702;7.462;2023-07-24T00:44:10;2.80;;;2.45;;
59233;SDS011;60776;51.702;7.462;2023-07-24T00:46:36;4.25;;;2.35;;
59233;SDS011;60776;51.702;7.462;2023-07-24T00:49:03;2.80;;;2.60;;
59233;SDS011;60776;51.702;7.462;2023-07-24T00:51:30;3.28;;;2.47;;
59233;SDS011;60776;51.702;7.462;2023-07-24T00:53:56;3.35;;;2.50;;
59233;SDS011;60776;51.702;7.462;2023-07-24T00:56:24;4.55;;;2.92;;
59233;SDS011;60776;51.702;7.462;2023-07-24T00:58:51;3.78;;;2.72;;
59233;SDS011;60776;51.702;7.462;2023-07-24T01:01:20;3.35;;;3.05;;
59233;SDS011;60776;51.702;7.462;2023-07-24T01:03:47;4.28;;;3.03;;
59233;SDS011;60776;51.702;7.462;2023-07-24T01:06:14;2.97;;;2.47;;
59233;SDS011;60776;51.702;7.462;2023-07-24T01:08:39;4.85;;;2.88;;
59233;SDS011;60776;51.702;7.462;2023-07-24T01:13:40;2.50;;;2.33;;
59233;SDS011;60776;51.702;7.462;2023-07-24T01:16:14;3.10;;;2.78;;
59233;SDS011;60776;51.702;7.462;2023-07-24T01:18:43;4.50;;;2.90;;
59233;SDS011;60776;51.702;7.462;2023-07-24T01:21:11;3.50;;;2.75;;
59233;SDS011;60776;51.702;7.462;2023-07-24T01:23:47;3.40;;;2.90;;
59233;SDS011;60776;51.702;7.462;2023-07-24T01:26:17;3.97;;;2.90;;
59233;SDS011;60776;51.702;7.462;2023-07-24T01:28:44;4.35;;;3.17;;
59233;SDS011;60776;51.702;7.462;2023-07-24T01:31:11;3.28;;;2.50;;
59233;SDS011;60776;51.702;7.462;2023-07-24T01:33:36;4.35;;;3.40;;
59233;SDS011;60776;51.702;7.462;2023-07-24T01:36:03;2.95;;;2.75;;
59233;SDS011;60776;51.702;7.462;2023-07-24T01:38:31;3.40;;;2.42;;
59233;SDS011;60776;51.702;7.462;2023-07-24T01:40:59;4.55;;;3.40;;
59233;SDS011;60776;51.702;7.462;2023-07-24T01:43:25;3.78;;;3.45;;
59233;SDS011;60776;51.702;7.462;2023-07-24T01:45:54;3.70;;;3.35;;
59233;SDS011;60776;51.702;7.462;2023-07-24T01:48:22;4.90;;;3.10;;
59233;SDS011;60776;51.702;7.462;2023-07-24T01:50:48;4.03;;;3.25;;
59233;SDS011;60776;51.702;7.462;2023-07-24T01:53:13;5.07;;;3.30;;
59233;SDS011;60776;51.702;7.462;2023-07-24T01:55:39;8.00;;;3.40;;
59233;SDS011;60776;51.702;7.462;2023-07-24T01:58:05;4.90;;;3.08;;
59233;SDS011;60776;51.702;7.462;2023-07-24T02:00:30;3.65;;;3.30;;
59233;SDS011;60776;51.702;7.462;2023-07-24T02:02:56;4.40;;;3.10;;
59233;SDS011;60776;51.702;7.462;2023-07-24T02:05:22;4.32;;;3.17;;
59233;SDS011;60776;51.702;7.462;2023-07-24T02:07:47;4.03;;;3.63;;
59233;SDS011;60776;51.702;7.462;2023-07-24T02:10:13;3.60;;;3.30;;
59233;SDS011;60776;51.702;7.462;2023-07-24T02:12:39;3.30;;;3.00;;
59233;SDS011;60776;51.702;7.462;2023-07-24T02:15:05;3.95;;;3.28;;
59233;SDS011;60776;51.702;7.462;2023-07-24T02:17:31;5.65;;;3.20;;
59233;SDS011;60776;51.702;7.462;2023-07-24T02:19:59;3.58;;;2.92;;
59233;SDS011;60776;51.702;7.462;2023-07-24T02:22:27;4.88;;;3.33;;
59233;SDS011;60776;51.702;7.462;2023-07-24T02:24:53;3.08;;;2.80;;
59233;SDS011;60776;51.702;7.462;2023-07-24T02:27:25;3.58;;;3.15;;
59233;SDS011;60776;51.702;7.462;2023-07-24T02:29:59;6.32;;;3.08;;
59233;SDS011;60776;51.702;7.462;2023-07-24T02:32:26;4.68;;;2.95;;
59233;SDS011;60776;51.702;7.462;2023-07-24T02:34:51;3.92;;;3.10;;
59233;SDS011;60776;51.702;7.462;2023-07-24T02:37:23;3.83;;;3.53;;
59233;SDS011;60776;51.702;7.462;2023-07-24T02:39:49;3.90;;;3.53;;
59233;SDS011;60776;51.702;7.462;2023-07-24T02:42:14;3.70;;;3.30;;
59233;SDS011;60776;51.702;7.462;2023-07-24T02:44:40;5.75;;;3.92;;
59233;SDS011;60776;51.702;7.462;2023-07-24T02:47:06;4.05;;;3.63;;
59233;SDS011;60776;51.702;7.462;2023-07-24T02:49:34;4.55;;;3.15;;
59233;SDS011;60776;51.702;7.462;2023-07-24T02:52:00;4.55;;;3.28;;
59233;SDS011;60776;51.702;7.462;2023-07-24T02:54:26;6.10;;;3.90;;
59233;SDS011;60776;51.702;7.462;2023-07-24T02:56:52;3.47;;;3.08;;
59233;SDS011;60776;51.702;7.462;2023-07-24T02:59:18;4.07;;;3.00;;
59233;SDS011;60776;51.702;7.462;2023-07-24T03:01:43;4.28;;;3.38;;
59233;SDS011;60776;51.702;7.462;2023-07-24T03:04:09;4.90;;;3.10;;
59233;SDS011;60776;51.702;7.462;2023-07-24T03:06:35;3.75;;;3.30;;
59233;SDS011;60776;51.702;7.462;2023-07-24T03:09:00;4.05;;;3.33;;
59233;SDS011;60776;51.702;7.462;2023-07-24T03:11:26;4.82;;;3.35;;
59233;SDS011;60776;51.702;7.462;2023-07-24T03:13:52;3.55;;;3.25;;
59233;SDS011;60776;51.702;7.462;2023-07-24T03:16:17;5.60;;;3.53;;
59233;SDS011;60776;51.702;7.462;2023-07-24T03:18:47;4.05;;;3.30;;
59233;SDS011;60776;51.702;7.462;2023-07-24T03:21:12;4.65;;;3.65;;
59233;SDS011;60776;51.702;7.462;2023-07-24T03:23:38;4.22;;;3.67;;
59233;SDS011;60776;51.702;7.462;2023-07-24T03:26:04;5.45;;;3.67;;
59233;SDS011;60776;51.702;7.462;2023-07-24T03:28:29;3.50;;;3.20;;
59233;SDS011;60776;51.702;7.462;2023-07-24T03:30:55;5.03;;;3.95;;
59233;SDS011;60776;51.702;7.462;2023-07-24T03:33:28;5.93;;;3.50;;
59233;SDS011;60776;51.702;7.462;2023-07-24T03:35:54;5.32;;;3.30;;
59233;SDS011;60776;51.702;7.462;2023-07-24T03:38:19;4.95;;;3.97;;
59233;SDS011;60776;51.702;7.462;2023-07-24T03:40:45;4.18;;;3.53;;
59233;SDS011;60776;51.702;7.462;2023-07-24T03:43:12;4.18;;;3.72;;
59233;SDS011;60776;51.702;7.462;2023-07-24T03:45:38;4.55;;;4.00;;
59233;SDS011;60776;51.702;7.462;2023-07-24T03:48:03;5.25;;;4.07;;
59233;SDS011;60776;51.702;7.462;2023-07-24T03:50:29;5.03;;;4.50;;
59233;SDS011;60776;51.702;7.462;2023-07-24T03:52:55;5.78;;;3.95;;
59233;SDS011;60776;51.702;7.462;2023-07-24T03:55:21;6.75;;;4.70;;
59233;SDS011;60776;51.702;7.462;2023-07-24T03:57:47;4.47;;;4.03;;
59233;SDS011;60776;51.702;7.462;2023-07-24T04:00:12;6.78;;;4.65;;
59233;SDS011;60776;51.702;7.462;2023-07-24T04:02:38;5.55;;;4.63;;
59233;SDS011;60776;51.702;7.462;2023-07-24T04:05:07;6.45;;;5.18;;
59233;SDS011;60776;51.702;7.462;2023-07-24T04:07:33;17.77;;;5.25;;
59233;SDS011;60776;51.702;7.462;2023-07-24T04:09:59;18.58;;;5.85;;
59233;SDS011;60776;51.702;7.462;2023-07-24T04:12:24;59.67;;;10.45;;
59233;SDS011;60776;51.702;7.462;2023-07-24T04:14:50;24.98;;;9.73;;
59233;SDS011;60776;51.702;7.462;2023-07-24T04:17:15;38.92;;;11.13;;
59233;SDS011;60776;51.702;7.462;2023-07-24T04:19:41;61.00;;;14.57;;
59233;SDS011;60776;51.702;7.462;2023-07-24T04:22:09;28.98;;;13.13;;
59233;SDS011;60776;51.702;7.462;2023-07-24T04:24:35;25.83;;;12.13;;
59233;SDS011;60776;51.702;7.462;2023-07-24T04:27:01;16.02;;;9.65;;
59233;SDS011;60776;51.702;7.462;2023-07-24T04:29:26;23.08;;;12.45;;
59233;SDS011;60776;51.702;7.462;2023-07-24T04:31:52;23.50;;;12.35;;
59233;SDS011;60776;51.702;7.462;2023-07-24T04:34:18;17.30;;;10.35;;
59233;SDS011;60776;51.702;7.462;2023-07-24T04:36:47;24.48;;;11.82;;
59233;SDS011;60776;51.702;7.462;2023-07-24T04:39:12;19.73;;;10.73;;
59233;SDS011;60776;51.702;7.462;2023-07-24T04:41:38;27.65;;;12.48;;
59233;SDS011;60776;51.702;7.462;2023-07-24T04:44:06;17.65;;;10.52;;
59233;SDS011;60776;51.702;7.462;2023-07-24T04:46:31;13.82;;;8.30;;
59233;SDS011;60776;51.702;7.462;2023-07-24T04:49:05;18.83;;;10.23;;
59233;SDS011;60776;51.702;7.462;2023-07-24T04:51:30;20.05;;;10.90;;
59233;SDS011;60776;51.702;7.462;2023-07-24T04:53:56;22.35;;;10.27;;
59233;SDS011;60776;51.702;7.462;2023-07-24T04:56:22;14.15;;;8.73;;
59233;SDS011;60776;51.702;7.462;2023-07-24T04:58:53;21.98;;;11.80;;
59233;SDS011;60776;51.702;7.462;2023-07-24T05:01:21;21.83;;;11.10;;
59233;SDS011;60776;51.702;7.462;2023-07-24T05:03:47;13.43;;;8.10;;
59233;SDS011;60776;51.702;7.462;2023-07-24T05:06:12;22.77;;;10.90;;
59233;SDS011;60776;51.702;7.462;2023-07-24T05:08:38;28.50;;;11.73;;
59233;SDS011;60776;51.702;7.462;2023-07-24T05:11:04;16.83;;;10.07;;
59233;SDS011;60776;51.702;7.462;2023-07-24T05:13:29;12.30;;;9.32;;
59233;SDS011;60776;51.702;7.462;2023-07-24T05:15:57;15.45;;;9.93;;
59233;SDS011;60776;51.702;7.462;2023-07-24T05:18:25;10.98;;;7.75;;
59233;SDS011;60776;51.702;7.462;2023-07-24T05:20:51;13.80;;;8.70;;
59233;SDS011;60776;51.702;7.462;2023-07-24T05:23:16;13.35;;;8.25;;
59233;SDS011;60776;51.702;7.462;2023-07-24T05:25:42;12.13;;;8.02;;
59233;SDS011;60776;51.702;7.462;2023-07-24T05:28:08;11.38;;;6.88;;
59233;SDS011;60776;51.702;7.462;2023-07-24T05:30:34;13.27;;;8.20;;
59233;SDS011;60776;51.702;7.462;2023-07-24T05:33:00;18.90;;;9.63;;
59233;SDS011;60776;51.702;7.462;2023-07-24T05:35:26;13.15;;;6.97;;
59233;SDS011;60776;51.702;7.462;2023-07-24T05:37:52;17.15;;;10.85;;
59233;SDS011;60776;51.702;7.462;2023-07-24T05:40:18;11.35;;;6.85;;
59233;SDS011;60776;51.702;7.462;2023-07-24T05:42:43;7.57;;;6.25;;
59233;SDS011;60776;51.702;7.462;2023-07-24T05:45:09;8.43;;;6.60;;
59233;SDS011;60776;51.702;7.462;2023-07-24T05:47:40;13.90;;;7.53;;
59233;SDS011;60776;51.702;7.462;2023-07-24T05:50:05;10.90;;;7.40;;
59233;SDS011;60776;51.702;7.462;2023-07-24T05:52:31;14.38;;;8.60;;
59233;SDS011;60776;51.702;7.462;2023-07-24T05:54:57;16.60;;;8.90;;
59233;SDS011;60776;51.702;7.462;2023-07-24T05:57:22;11.45;;;8.13;;
59233;SDS011;60776;51.702;7.462;2023-07-24T05:59:50;14.63;;;8.50;;
59233;SDS011;60776;51.702;7.462;2023-07-24T06:02:17;17.15;;;9.98;;
59233;SDS011;60776;51.702;7.462;2023-07-24T06:04:43;14.90;;;9.93;;
59233;SDS011;60776;51.702;7.462;2023-07-24T06:07:08;15.63;;;9.25;;
59233;SDS011;60776;51.702;7.462;2023-07-24T06:09:34;14.25;;;8.75;;
59233;SDS011;60776;51.702;7.462;2023-07-24T06:12:00;15.65;;;9.63;;
59233;SDS011;60776;51.702;7.462;2023-07-24T06:14:25;11.00;;;7.28;;
59233;SDS011;60776;51.702;7.462;2023-07-24T06:16:53;11.45;;;7.95;;
59233;SDS011;60776;51.702;7.462;2023-07-24T06:19:19;8.00;;;7.07;;
59233;SDS011;60776;51.702;7.462;2023-07-24T06:21:47;10.27;;;6.93;;
59233;SDS011;60776;51.702;7.462;2023-07-24T06:24:17;10.35;;;7.72;;
59233;SDS011;60776;51.702;7.462;2023-07-24T06:26:43;8.40;;;6.30;;
59233;SDS011;60776;51.702;7.462;2023-07-24T06:29:08;9.80;;;6.75;;
59233;SDS011;60776;51.702;7.462;2023-07-24T06:31:34;9.75;;;6.78;;
59233;SDS011;60776;51.702;7.462;2023-07-24T06:34:00;8.30;;;6.60;;
59233;SDS011;60776;51.702;7.462;2023-07-24T06:36:25;8.55;;;6.65;;
59233;SDS011;60776;51.702;7.462;2023-07-24T06:38:51;9.18;;;6.18;;
59233;SDS011;60776;51.702;7.462;2023-07-24T06:41:17;7.57;;;6.22;;
59233;SDS011;60776;51.702;7.462;2023-07-24T06:43:45;7.20;;;5.68;;
59233;SDS011;60776;51.702;7.462;2023-07-24T06:46:10;8.90;;;5.82;;
59233;SDS011;60776;51.702;7.462;2023-07-24T06:48:36;7.28;;;5.78;;
59233;SDS011;60776;51.702;7.462;2023-07-24T06:51:02;5.88;;;5.25;;
59233;SDS011;60776;51.702;7.462;2023-07-24T06:53:28;7.78;;;6.97;;
59233;SDS011;60776;51.702;7.462;2023-07-24T06:55:53;6.35;;;5.75;;
59233;SDS011;60776;51.702;7.462;2023-07-24T06:58:19;8.45;;;7.20;;
59233;SDS011;60776;51.702;7.462;2023-07-24T07:00:45;8.50;;;6.63;;
59233;SDS011;60776;51.702;7.462;2023-07-24T07:03:10;8.02;;;6.82;;
59233;SDS011;60776;51.702;7.462;2023-07-24T07:05:36;7.28;;;6.50;;
59233;SDS011;60776;51.702;7.462;2023-07-24T07:08:02;5.63;;;5.03;;
59233;SDS011;60776;51.702;7.462;2023-07-24T07:10:28;7.63;;;5.60;;
59233;SDS011;60776;51.702;7.462;2023-07-24T07:12:55;6.13;;;5.53;;
59233;SDS011;60776;51.702;7.462;2023-07-24T07:15:23;6.82;;;5.53;;
59233;SDS011;60776;51.702;7.462;2023-07-24T07:17:49;5.97;;;4.95;;
59233;SDS011;60776;51.702;7.462;2023-07-24T07:20:14;7.53;;;5.38;;
59233;SDS011;60776;51.702;7.462;2023-07-24T07:22:40;7.47;;;5.25;;
59233;SDS011;60776;51.702;7.462;2023-07-24T07:25:06;6.85;;;5.32;;
59233;SDS011;60776;51.702;7.462;2023-07-24T07:27:32;8.15;;;5.47;;
59233;SDS011;60776;51.702;7.462;2023-07-24T07:29:58;5.32;;;4.82;;
59233;SDS011;60776;51.702;7.462;2023-07-24T07:32:23;6.20;;;4.65;;
59233;SDS011;60776;51.702;7.462;2023-07-24T07:34:49;5.47;;;4.93;;
59233;SDS011;60776;51.702;7.462;2023-07-24T07:37:15;5.38;;;4.80;;
59233;SDS011;60776;51.702;7.462;2023-07-24T07:39:41;5.68;;;5.10;;
59233;SDS011;60776;51.702;7.462;2023-07-24T07:42:07;6.07;;;5.47;;
59233;SDS011;60776;51.702;7.462;2023-07-24T07:44:32;5.95;;;5.22;;
59233;SDS011;60776;51.702;7.462;2023-07-24T07:46:58;6.35;;;5.68;;
59233;SDS011;60776;51.702;7.462;2023-07-24T07:49:24;6.45;;;5.03;;
59233;SDS011;60776;51.702;7.462;2023-07-24T07:51:49;6.40;;;5.53;;
59233;SDS011;60776;51.702;7.462;2023-07-24T07:54:15;5.80;;;5.25;;
59233;SDS011;60776;51.702;7.462;2023-07-24T07:56:41;7.65;;;5.50;;
59233;SDS011;60776;51.702;7.462;2023-07-24T07:59:07;7.57;;;5.93;;
59233;SDS011;60776;51.702;7.462;2023-07-24T08:01:33;5.63;;;5.13;;
59233;SDS011;60776;51.702;7.462;2023-07-24T08:04:00;6.07;;;5.18;;
59233;SDS011;60776;51.702;7.462;2023-07-24T08:06:26;6.30;;;5.32;;
59233;SDS011;60776;51.702;7.462;2023-07-24T08:08:52;7.68;;;5.95;;
59233;SDS011;60776;51.702;7.462;2023-07-24T08:11:17;7.03;;;6.32;;
59233;SDS011;60776;51.702;7.462;2023-07-24T08:13:43;5.40;;;4.90;;
59233;SDS011;60776;51.702;7.462;2023-07-24T08:16:12;7.35;;;6.65;;
59233;SDS011;60776;51.702;7.462;2023-07-24T08:18:43;6.82;;;6.00;;
59233;SDS011;60776;51.702;7.462;2023-07-24T08:21:10;10.60;;;7.32;;
59233;SDS011;60776;51.702;7.462;2023-07-24T08:23:36;9.48;;;7.40;;
59233;SDS011;60776;51.702;7.462;2023-07-24T08:26:02;8.13;;;6.40;;
59233;SDS011;60776;51.702;7.462;2023-07-24T08:28:28;6.13;;;5.53;;
59233;SDS011;60776;51.702;7.462;2023-07-24T08:30:57;5.32;;;4.82;;
59233;SDS011;60776;51.702;7.462;2023-07-24T08:33:23;5.50;;;5.00;;
59233;SDS011;60776;51.702;7.462;2023-07-24T08:36:05;4.22;;;3.90;;
59233;SDS011;60776;51.702;7.462;2023-07-24T08:38:32;3.92;;;3.53;;
59233;SDS011;60776;51.702;7.462;2023-07-24T08:41:02;3.60;;;3.30;;
59233;SDS011;60776;51.702;7.462;2023-07-24T08:43:31;4.47;;;3.20;;
59233;SDS011;60776;51.702;7.462;2023-07-24T08:45:59;2.85;;;2.65;;
59233;SDS011;60776;51.702;7.462;2023-07-24T08:48:26;2.60;;;2.40;;
59233;SDS011;60776;51.702;7.462;2023-07-24T08:51:07;2.22;;;2.10;;
59233;SDS011;60776;51.702;7.462;2023-07-24T08:53:37;2.15;;;2.05;;
59233;SDS011;60776;51.702;7.462;2023-07-24T08:56:07;2.38;;;2.17;;
59233;SDS011;60776;51.702;7.462;2023-07-24T08:58:34;3.15;;;2.85;;
59233;SDS011;60776;51.702;7.462;2023-07-24T09:01:09;3.08;;;2.50;;
59233;SDS011;60776;51.702;7.462;2023-07-24T09:03:37;3.28;;;3.00;;
59233;SDS011;60776;51.702;7.462;2023-07-24T09:06:03;3.20;;;3.00;;
59233;SDS011;60776;51.702;7.462;2023-07-24T09:08:36;4.05;;;3.28;;
59233;SDS011;60776;51.702;7.462;2023-07-24T09:11:03;4.32;;;3.88;;
59233;SDS011;60776;51.702;7.462;2023-07-24T09:13:30;4.10;;;3.80;;
59233;SDS011;60776;51.702;7.462;2023-07-24T09:15:56;5.25;;;3.55;;
59233;SDS011;60776;51.702;7.462;2023-07-24T09:18:24;4.78;;;4.40;;
59233;SDS011;60776;51.702;7.462;2023-07-24T09:20:50;4.50;;;4.10;;
59233;SDS011;60776;51.702;7.462;2023-07-24T09:23:17;4.47;;;4.05;;
59233;SDS011;60776;51.702;7.462;2023-07-24T09:25:51;4.22;;;3.85;;
59233;SDS011;60776;51.702;7.462;2023-07-24T09:28:17;4.57;;;4.18;;
59233;SDS011;60776;51.702;7.462;2023-07-24T09:30:53;4.70;;;4.30;;
59233;SDS011;60776;51.702;7.462;2023-07-24T09:33:33;4.32;;;3.63;;
59233;SDS011;60776;51.702;7.462;2023-07-24T09:36:00;3.67;;;3.38;;
59233;SDS011;60776;51.702;7.462;2023-07-24T09:38:26;3.10;;;2.90;;
59233;SDS011;60776;51.702;7.462;2023-07-24T09:40:52;3.22;;;2.90;;
59233;SDS011;60776;51.702;7.462;2023-07-24T09:43:24;3.00;;;2.80;;
59233;SDS011;60776;51.702;7.462;2023-07-24T09:45:52;3.20;;;2.38;;
59233;SDS011;60776;51.702;7.462;2023-07-24T09:48:19;2.70;;;2.50;;
59233;SDS011;60776;51.702;7.462;2023-07-24T09:50:46;3.05;;;2.60;;
59233;SDS011;60776;51.702;7.462;2023-07-24T09:55:59;2.50;;;2.30;;
59233;SDS011;60776;51.702;7.462;2023-07-24T09:58:38;2.50;;;2.30;;
59233;SDS011;60776;51.702;7.462;2023-07-24T10:01:08;2.70;;;2.30;;
59233;SDS011;60776;51.702;7.462;2023-07-24T10:03:35;2.38;;;2.17;;
59233;SDS011;60776;51.702;7.462;2023-07-24T10:06:06;2.35;;;2.15;;
59233;SDS011;60776;51.702;7.462;2023-07-24T10:08:35;2.40;;;2.20;;
59233;SDS011;60776;51.702;7.462;2023-07-24T10:11:02;3.42;;;1.65;;
59233;SDS011;60776;51.702;7.462;2023-07-24T10:13:28;1.95;;;1.85;;
59233;SDS011;60776;51.702;7.462;2023-07-24T10:15:54;1.70;;;1.60;;
59233;SDS011;60776;51.702;7.462;2023-07-24T10:18:28;1.75;;;1.63;;
59233;SDS011;60776;51.702;7.462;2023-07-24T10:21:04;3.10;;;2.67;;
59233;SDS011;60776;51.702;7.462;2023-07-24T10:23:33;2.60;;;2.40;;
59233;SDS011;60776;51.702;7.462;2023-07-24T10:26:06;2.50;;;2.30;;
59233;SDS011;60776;51.702;7.462;2023-07-24T10:28:33;4.20;;;2.92;;
59233;SDS011;60776;51.702;7.462;2023-07-24T10:31:06;2.50;;;2.25;;
59233;SDS011;60776;51.702;7.462;2023-07-24T10:33:34;2.70;;;2.50;;
59233;SDS011;60776;51.702;7.462;2023-07-24T10:36:07;2.75;;;2.55;;
59233;SDS011;60776;51.702;7.462;2023-07-24T10:38:39;3.30;;;3.05;;
59233;SDS011;60776;51.702;7.462;2023-07-24T10:41:10;2.67;;;2.47;;
59233;SDS011;60776;51.702;7.462;2023-07-24T10:43:40;3.42;;;2.75;;
59233;SDS011;60776;51.702;7.462;2023-07-24T10:46:10;3.03;;;2.83;;
59233;SDS011;60776;51.702;7.462;2023-07-24T10:48:36;3.17;;;2.97;;
59233;SDS011;60776;51.702;7.462;2023-07-24T10:51:08;3.60;;;3.30;;
59233;SDS011;60776;51.702;7.462;2023-07-24T10:53:38;3.33;;;3.03;;
59233;SDS011;60776;51.702;7.462;2023-07-24T10:56:06;3.65;;;3.35;;
59233;SDS011;60776;51.702;7.462;2023-07-24T10:58:32;3.13;;;2.92;;
59233;SDS011;60776;51.702;7.462;2023-07-24T11:01:03;3.63;;;3.00;;
59233;SDS011;60776;51.702;7.462;2023-07-24T11:03:32;2.70;;;2.50;;
59233;SDS011;60776;51.702;7.462;2023-07-24T11:06:01;2.90;;;2.22;;
59233;SDS011;60776;51.702;7.462;2023-07-24T11:08:27;2.75;;;2.50;;
59233;SDS011;60776;51.702;7.462;2023-07-24T11:10:54;1.85;;;1.75;;
59233;SDS011;60776;51.702;7.462;2023-07-24T11:13:22;2.17;;;2.05;;
59233;SDS011;60776;51.702;7.462;2023-07-24T11:15:49;2.40;;;2.30;;
59233;SDS011;60776;51.702;7.462;2023-07-24T11:18:21;2.97;;;2.38;;
59233;SDS011;60776;51.702;7.462;2023-07-24T11:20:53;3.85;;;3.30;;
59233;SDS011;60776;51.702;7.462;2023-07-24T11:23:20;2.60;;;2.40;;
59233;SDS011;60776;51.702;7.462;2023-07-24T11:25:49;2.97;;;2.60;;
59233;SDS011;60776;51.702;7.462;2023-07-24T11:28:16;3.63;;;3.05;;
59233;SDS011;60776;51.702;7.462;2023-07-24T11:30:45;2.55;;;2.30;;
59233;SDS011;60776;51.702;7.462;2023-07-24T11:33:11;2.88;;;2.58;;
59233;SDS011;60776;51.702;7.462;2023-07-24T11:35:40;4.80;;;2.97;;
59233;SDS011;60776;51.702;7.462;2023-07-24T11:38:07;4.55;;;2.88;;
59233;SDS011;60776;51.702;7.462;2023-07-24T11:40:41;3.65;;;3.25;;
59233;SDS011;60776;51.702;7.462;2023-07-24T11:43:22;3.55;;;3.13;;
59233;SDS011;60776;51.702;7.462;2023-07-24T11:45:51;5.30;;;3.10;;
59233;SDS011;60776;51.702;7.462;2023-07-24T11:48:19;4.82;;;3.05;;
59233;SDS011;60776;51.702;7.462;2023-07-24T11:50:53;3.75;;;3.20;;
59233;SDS011;60776;51.702;7.462;2023-07-24T11:53:23;5.18;;;3.72;;
59233;SDS011;60776;51.702;7.462;2023-07-24T11:55:58;6.38;;;4.10;;
59233;SDS011;60776;51.702;7.462;2023-07-24T11:58:26;6.32;;;5.03;;
59233;SDS011;60776;51.702;7.462;2023-07-24T12:00:53;5.57;;;4.80;;
59233;SDS011;60776;51.702;7.462;2023-07-24T12:03:24;6.47;;;4.90;;
59233;SDS011;60776;51.702;7.462;2023-07-24T12:05:50;17.70;;;5.93;;
59233;SDS011;60776;51.702;7.462;2023-07-24T12:08:16;7.80;;;6.15;;
59233;SDS011;60776;51.702;7.462;2023-07-24T12:10:44;4.97;;;4.57;;
59233;SDS011;60776;51.702;7.462;2023-07-24T12:13:10;5.07;;;4.68;;
59233;SDS011;60776;51.702;7.462;2023-07-24T12:15:36;5.80;;;5.20;;
59233;SDS011;60776;51.702;7.462;2023-07-24T12:18:02;5.25;;;4.75;;
59233;SDS011;60776;51.702;7.462;2023-07-24T12:20:29;13.75;;;6.50;;
59233;SDS011;60776;51.702;7.462;2023-07-24T12:22:55;7.15;;;5.63;;
59233;SDS011;60776;51.702;7.462;2023-07-24T12:25:22;18.90;;;9.88;;
59233;SDS011;60776;51.702;7.462;2023-07-24T12:27:50;12.10;;;9.40;;
59233;SDS011;60776;51.702;7.462;2023-07-24T12:30:16;12.85;;;7.55;;
59233;SDS011;60776;51.702;7.462;2023-07-24T12:32:41;12.32;;;7.88;;
59233;SDS011;60776;51.702;7.462;2023-07-24T12:35:08;9.55;;;7.07;;
59233;SDS011;60776;51.702;7.462;2023-07-24T12:37:35;8.98;;;6.20;;
59233;SDS011;60776;51.702;7.462;2023-07-24T12:40:01;11.10;;;4.88;;
59233;SDS011;60776;51.702;7.462;2023-07-24T12:42:28;6.50;;;3.40;;
59233;SDS011;60776;51.702;7.462;2023-07-24T12:44:53;6.40;;;3.10;;
59233;SDS011;60776;51.702;7.462;2023-07-24T12:47:19;7.03;;;2.38;;
59233;SDS011;60776;51.702;7.462;2023-07-24T12:49:45;20.92;;;3.90;;
59233;SDS011;60776;51.702;7.462;2023-07-24T12:52:10;10.00;;;3.30;;
59233;SDS011;60776;51.702;7.462;2023-07-24T12:54:36;3.03;;;2.75;;
59233;SDS011;60776;51.702;7.462;2023-07-24T12:57:02;8.52;;;3.75;;
59233;SDS011;60776;51.702;7.462;2023-07-24T12:59:28;7.57;;;4.38;;
59233;SDS011;60776;51.702;7.462;2023-07-24T13:01:54;5.97;;;3.90;;
59233;SDS011;60776;51.702;7.462;2023-07-24T13:04:20;4.60;;;2.97;;
59233;SDS011;60776;51.702;7.462;2023-07-24T13:06:47;5.80;;;3.60;;
59233;SDS011;60776;51.702;7.462;2023-07-24T13:09:12;3.85;;;2.95;;
59233;SDS011;60776;51.702;7.462;2023-07-24T13:11:38;5.03;;;3.28;;
59233;SDS011;60776;51.702;7.462;2023-07-24T13:14:04;3.10;;;2.63;;
59233;SDS011;60776;51.702;7.462;2023-07-24T13:16:29;2.60;;;2.40;;
59233;SDS011;60776;51.702;7.462;2023-07-24T13:18:55;2.83;;;2.53;;
59233;SDS011;60776;51.702;7.462;2023-07-24T13:21:21;2.42;;;2.22;;
59233;SDS011;60776;51.702;7.462;2023-07-24T13:23:46;3.38;;;2.33;;
59233;SDS011;60776;51.702;7.462;2023-07-24T13:26:12;2.20;;;2.00;;
59233;SDS011;60776;51.702;7.462;2023-07-24T13:28:39;2.30;;;2.13;;
59233;SDS011;60776;51.702;7.462;2023-07-24T13:33:37;2.25;;;2.05;;
59233;SDS011;60776;51.702;7.462;2023-07-24T13:36:02;2.80;;;2.28;;
59233;SDS011;60776;51.702;7.462;2023-07-24T13:38:28;2.65;;;2.00;;
59233;SDS011;60776;51.702;7.462;2023-07-24T13:40:54;4.07;;;1.75;;
59233;SDS011;60776;51.702;7.462;2023-07-24T13:43:19;2.53;;;1.85;;
59233;SDS011;60776;51.702;7.462;2023-07-24T13:45:45;2.28;;;1.70;;
59233;SDS011;60776;51.702;7.462;2023-07-24T13:48:11;4.13;;;2.10;;
59233;SDS011;60776;51.702;7.462;2023-07-24T13:50:36;3.03;;;1.98;;
59233;SDS011;60776;51.702;7.462;2023-07-24T13:53:02;3.78;;;2.00;;
59233;SDS011;60776;51.702;7.462;2023-07-24T13:55:27;3.00;;;2.80;;
59233;SDS011;60776;51.702;7.462;2023-07-24T13:57:53;2.95;;;2.75;;
59233;SDS011;60776;51.702;7.462;2023-07-24T14:00:19;4.20;;;3.38;;
59233;SDS011;60776;51.702;7.462;2023-07-24T14:02:44;3.08;;;2.88;;
59233;SDS011;60776;51.702;7.462;2023-07-24T14:05:10;3.80;;;3.42;;
59233;SDS011;60776;51.702;7.462;2023-07-24T14:07:35;4.40;;;3.60;;
59233;SDS011;60776;51.702;7.462;2023-07-24T14:10:01;5.35;;;3.70;;
59233;SDS011;60776;51.702;7.462;2023-07-24T14:12:27;4.75;;;3.20;;
59233;SDS011;60776;51.702;7.462;2023-07-24T14:14:52;3.70;;;3.40;;
59233;SDS011;60776;51.702;7.462;2023-07-24T14:17:18;3.25;;;3.05;;
59233;SDS011;60776;51.702;7.462;2023-07-24T14:19:44;5.13;;;4.07;;
59233;SDS011;60776;51.702;7.462;2023-07-24T14:22:10;3.72;;;3.42;;
59233;SDS011;60776;51.702;7.462;2023-07-24T14:24:38;4.20;;;3.80;;
59233;SDS011;60776;51.702;7.462;2023-07-24T14:27:03;4.10;;;3.08;;
59233;SDS011;60776;51.702;7.462;2023-07-24T14:29:32;3.63;;;3.30;;
59233;SDS011;60776;51.702;7.462;2023-07-24T14:31:57;4.68;;;3.53;;
59233;SDS011;60776;51.702;7.462;2023-07-24T14:34:23;3.65;;;3.35;;
59233;SDS011;60776;51.702;7.462;2023-07-24T14:36:49;3.30;;;3.10;;
59233;SDS011;60776;51.702;7.462;2023-07-24T14:39:14;4.45;;;4.13;;
59233;SDS011;60776;51.702;7.462;2023-07-24T14:41:40;3.28;;;2.97;;
59233;SDS011;60776;51.702;7.462;2023-07-24T14:44:06;3.72;;;3.22;;
59233;SDS011;60776;51.702;7.462;2023-07-24T14:46:31;3.10;;;2.90;;
59233;SDS011;60776;51.702;7.462;2023-07-24T14:48:57;2.95;;;2.75;;
59233;SDS011;60776;51.702;7.462;2023-07-24T14:51:23;3.40;;;3.10;;